Time;durP1;ratioP1;P1;durP2;ratioP2;P2;SDS_P1;SDS_P2;PMS_P1;PMS_P2;Temp;Humidity;BMP_temperature;BMP_pressure;BME280_temperature;BME280_humidity;BME280_pressure;Samples;Min_cycle;Max_cycle;Signal;HPM_P1;HPM_P2
2021/05/15 00:02:00;;;;;;;;;;;;;;;21.25;46.60;99850.42;1740515;82;20529;-77
2021/05/15 00:04:26;;;;;;;;;;;;;;;21.25;46.59;99845.52;1740876;82;20204;-77
2021/05/15 00:06:52;;;;;;;;;;;;;;;21.21;46.68;99849.28;1739640;82;20543;-76
2021/05/15 00:09:20;;;;;;;;;;;;;;;21.19;46.74;99848.69;1739776;82;20244;-77
2021/05/15 00:11:46;;;;;;;;;;;;;;;21.20;46.80;99851.69;1739542;82;20196;-76
2021/05/15 00:14:12;;;;;;;;;;;;;;;21.18;46.83;99844.31;1739914;82;20245;-76
2021/05/15 00:16:39;;;;;;;;;;;;;;;21.16;46.88;99853.24;1740267;82;20565;-77
2021/05/15 00:19:05;;;;;;;;;;;;;;;21.15;46.90;99852.95;1744179;81;20257;-77
2021/05/15 00:21:32;;;;;;;;;;;;;;;21.13;47.00;99856.47;1700200;84;20268;-77
2021/05/15 00:23:58;;;;;;;;;;;;;;;21.12;47.06;99849.37;1700488;84;20220;-77
2021/05/15 00:26:25;;;;;;;;;;;;;;;21.15;47.10;99852.95;1698946;84;20195;-78
2021/05/15 00:28:51;;;;;;;;;;;;;;;21.19;47.11;99854.13;1698868;84;20252;-77
2021/05/15 00:31:17;;;;;;;;;;;;;;;21.23;47.00;99853.94;1698879;84;20561;-77
2021/05/15 00:33:43;;;;;;;;;;;;;;;21.25;47.02;99849.06;1698694;84;20241;-77
2021/05/15 00:36:10;;;;;;;;;;;;;;;21.29;46.96;99848.87;1698886;84;20284;-77
2021/05/15 00:38:36;;;;;;;;;;;;;;;21.27;47.00;99852.93;1698944;84;20259;-77
2021/05/15 00:41:02;;;;;;;;;;;;;;;21.18;47.16;99845.67;1698704;84;20264;-77
2021/05/15 00:43:29;;;;;;;;;;;;;;;21.14;47.21;99845.86;1699108;84;20249;-77
2021/05/15 00:45:55;;;;;;;;;;;;;;;21.13;47.28;99848.30;1699824;84;20261;-77
2021/05/15 00:48:21;;;;;;;;;;;;;;;21.13;47.28;99844.22;1699984;84;20268;-77
2021/05/15 00:50:47;;;;;;;;;;;;;;;21.14;47.26;99852.67;1703181;84;20335;-77
2021/05/15 00:53:13;;;;;;;;;;;;;;;21.14;47.26;99856.76;1671519;84;20274;-77
2021/05/15 00:55:39;;;;;;;;;;;;;;;21.12;47.30;99863.00;1736457;82;20581;-77
2021/05/15 00:58:05;;;;;;;;;;;;;;;21.12;47.33;99860.78;1736320;82;20208;-77
2021/05/15 01:00:32;;;;;;;;;;;;;;;21.11;47.31;99855.87;1736290;82;20137;-77
2021/05/15 01:02:58;;;;;;;;;;;;;;;21.14;47.28;99864.92;1736194;82;20508;-77
2021/05/15 01:05:25;;;;;;;;;;;;;;;21.14;47.26;99867.66;1736073;82;20174;-77
2021/05/15 01:07:51;;;;;;;;;;;;;;;21.12;47.33;99876.61;1736573;82;20169;-77
2021/05/15 01:10:17;;;;;;;;;;;;;;;21.15;47.28;99882.09;1737044;82;20195;-77
2021/05/15 01:12:50;;;;;;;;;;;;;;;21.13;47.44;99880.98;1736111;82;20256;-77
2021/05/15 01:15:20;;;;;;;;;;;;;;;21.14;47.44;99881.80;1736000;82;20518;-77
2021/05/15 01:17:56;;;;;;;;;;;;;;;21.12;47.42;99876.61;1735067;82;20565;-77
2021/05/15 01:20:27;;;;;;;;;;;;;;;21.41;46.85;99885.64;1736481;82;20498;-77
2021/05/15 01:22:54;;;;;;;;;;;;;;;21.59;46.45;99882.44;1736154;82;20177;-77
2021/05/15 01:25:20;;;;;;;;;;;;;;;21.59;46.31;99881.89;1736575;82;20137;-77
2021/05/15 01:27:46;;;;;;;;;;;;;;;21.62;46.21;99880.56;1736720;81;20200;-77
2021/05/15 01:30:15;;;;;;;;;;;;;;;21.63;46.14;99878.16;1705052;82;20263;-77
2021/05/15 01:32:44;;;;;;;;;;;;;;;21.65;46.06;99877.36;1736215;82;20161;-78
2021/05/15 01:35:12;;;;;;;;;;;;;;;21.62;46.10;99880.56;1736407;82;20149;-77
2021/05/15 01:37:37;;;;;;;;;;;;;;;21.62;46.09;99884.65;1736334;81;20162;-77
2021/05/15 01:40:08;;;;;;;;;;;;;;;21.59;46.15;99887.34;1736585;82;20191;-77
2021/05/15 01:42:36;;;;;;;;;;;;;;;21.55;46.21;99885.36;1736225;82;20246;-77
2021/05/15 01:45:05;;;;;;;;;;;;;;;21.53;46.27;99889.70;1736173;82;20257;-77
2021/05/15 01:47:36;;;;;;;;;;;;;;;21.52;46.35;99894.83;1736339;82;20244;-77
2021/05/15 01:50:06;;;;;;;;;;;;;;;21.48;46.38;99890.94;1736152;82;20546;-77
2021/05/15 01:52:32;;;;;;;;;;;;;;;21.45;46.46;99900.98;1735968;82;20157;-77
2021/05/15 01:54:59;;;;;;;;;;;;;;;21.40;46.53;99903.07;1736157;82;20566;-78
2021/05/15 01:57:25;;;;;;;;;;;;;;;21.42;46.47;99891.92;1736427;82;20178;-78
2021/05/15 01:59:50;;;;;;;;;;;;;;;21.38;46.53;99900.28;1736296;82;20279;-77
2021/05/15 02:02:17;;;;;;;;;;;;;;;21.33;46.60;99906.45;1736710;82;20141;-77
2021/05/15 02:04:43;;;;;;;;;;;;;;;21.28;46.68;99909.87;1736763;82;20157;-77
2021/05/15 02:07:11;;;;;;;;;;;;;;;21.26;46.71;99898.41;1736342;82;20137;-77
2021/05/15 02:09:39;;;;;;;;;;;;;;;21.26;46.82;99898.95;1736977;82;20191;-77
2021/05/15 02:12:05;;;;;;;;;;;;;;;21.24;46.86;99901.07;1736785;81;20534;-77
2021/05/15 02:14:31;;;;;;;;;;;;;;;21.17;46.96;99891.69;1736484;82;20141;-77
2021/05/15 02:16:58;;;;;;;;;;;;;;;21.15;47.04;99898.44;1736593;82;20168;-77
2021/05/15 02:19:24;;;;;;;;;;;;;;;21.13;47.12;99905.49;1736948;82;20189;-77
2021/05/15 02:21:50;;;;;;;;;;;;;;;21.14;47.12;99907.14;1737026;82;20240;-77
2021/05/15 02:24:16;;;;;;;;;;;;;;;21.11;47.16;99910.33;1736715;82;20216;-77
2021/05/15 02:26:42;;;;;;;;;;;;;;;21.07;47.27;99902.35;1736165;82;20165;-77
2021/05/15 02:29:08;;;;;;;;;;;;;;;21.05;47.35;99911.84;1736698;82;20204;-77
2021/05/15 02:31:34;;;;;;;;;;;;;;;20.99;47.43;99906.83;1736364;82;20149;-78
2021/05/15 02:34:00;;;;;;;;;;;;;;;20.97;47.50;99908.41;1736940;82;20260;-77
2021/05/15 02:36:28;;;;;;;;;;;;;;;20.94;47.58;99906.73;1737772;82;20165;-77
2021/05/15 02:38:55;;;;;;;;;;;;;;;20.91;47.67;99906.66;1737924;82;20326;-77
2021/05/15 02:41:21;;;;;;;;;;;;;;;20.86;47.76;99907.09;1743642;82;20222;-79
2021/05/15 02:43:47;;;;;;;;;;;;;;;20.79;47.89;99899.03;1745802;81;20234;-78
2021/05/15 02:46:14;;;;;;;;;;;;;;;20.68;48.10;99908.87;1745718;81;20511;-77
2021/05/15 02:48:39;;;;;;;;;;;;;;;20.45;48.56;99916.48;1745940;82;20189;-77
2021/05/15 02:51:05;;;;;;;;;;;;;;;20.13;49.37;99921.95;1745888;82;20172;-78
2021/05/15 02:53:32;;;;;;;;;;;;;;;20.05;49.58;99919.56;1745707;82;20142;-77
2021/05/15 02:56:00;;;;;;;;;;;;;;;20.02;49.71;99918.13;1745604;82;20284;-78
2021/05/15 02:58:26;;;;;;;;;;;;;;;19.98;49.78;99918.30;1745749;81;20230;-78
2021/05/15 03:00:52;;;;;;;;;;;;;;;19.96;49.90;99924.51;1745889;81;20142;-78
2021/05/15 03:03:18;;;;;;;;;;;;;;;19.95;50.00;99930.48;1742446;81;20736;-78
2021/05/15 03:05:44;;;;;;;;;;;;;;;19.92;50.08;99931.47;1736366;82;20249;-78
2021/05/15 03:08:11;;;;;;;;;;;;;;;19.89;50.16;99932.75;1735131;82;20230;-79
2021/05/15 03:10:36;;;;;;;;;;;;;;;19.88;50.18;99935.17;1734879;82;20263;-78
2021/05/15 03:13:02;;;;;;;;;;;;;;;19.86;50.26;99942.74;1734941;82;20200;-78
2021/05/15 03:15:29;;;;;;;;;;;;;;;19.84;50.38;99938.59;1735315;82;20260;-78
2021/05/15 03:17:56;;;;;;;;;;;;;;;19.79;50.53;99938.45;1735625;82;21024;-78
2021/05/15 03:20:24;;;;;;;;;;;;;;;19.82;50.55;99943.44;1735001;82;20593;-78
2021/05/15 03:22:50;;;;;;;;;;;;;;;19.78;50.69;99935.45;1735607;82;20241;-77
2021/05/15 03:25:16;;;;;;;;;;;;;;;19.79;50.76;99945.25;1735127;82;20193;-77
2021/05/15 03:27:42;;;;;;;;;;;;;;;19.78;50.77;99939.52;1735485;82;20225;-76
2021/05/15 03:30:10;;;;;;;;;;;;;;;19.78;50.82;99940.34;1736210;82;20311;-76
2021/05/15 03:32:40;;;;;;;;;;;;;;;19.84;50.86;99935.87;1736191;82;20560;-77
2021/05/15 03:35:05;;;;;;;;;;;;;;;19.91;50.83;99937.44;1736255;82;20193;-77
2021/05/15 03:37:31;;;;;;;;;;;;;;;20.05;50.63;99940.78;1736173;82;20214;-77
2021/05/15 03:39:58;;;;;;;;;;;;;;;20.13;50.49;99939.09;1736141;82;20173;-77
2021/05/15 03:42:25;;;;;;;;;;;;;;;20.20;50.31;99937.08;1736045;82;20192;-77
2021/05/15 03:44:52;;;;;;;;;;;;;;;20.26;50.20;99940.78;1736105;82;20141;-77
2021/05/15 03:47:18;;;;;;;;;;;;;;;20.25;50.23;99944.00;1736655;82;20157;-77
2021/05/15 03:49:44;;;;;;;;;;;;;;;20.25;50.18;99941.81;1736667;82;20248;-77
2021/05/15 03:52:10;;;;;;;;;;;;;;;20.31;50.14;99949.05;1736156;82;20196;-77
2021/05/15 03:54:37;;;;;;;;;;;;;;;20.34;50.14;99943.13;1736308;82;20513;-77
2021/05/15 03:57:05;;;;;;;;;;;;;;;20.39;50.21;99948.69;1736458;82;20137;-77
2021/05/15 03:59:31;;;;;;;;;;;;;;;20.51;50.03;99948.20;1735428;82;20228;-77
2021/05/15 04:01:58;;;;;;;;;;;;;;;20.58;49.91;99956.27;1734798;82;20272;-77
2021/05/15 04:04:24;;;;;;;;;;;;;;;20.67;49.60;99955.39;1733835;82;20315;-76
2021/05/15 04:06:50;;;;;;;;;;;;;;;20.76;49.29;99952.07;1734124;82;20240;-78
2021/05/15 04:09:17;;;;;;;;;;;;;;;20.90;49.01;99958.64;1734556;82;20158;-78
2021/05/15 04:11:43;;;;;;;;;;;;;;;20.95;48.85;99958.75;1735134;82;20263;-78
2021/05/15 04:14:33;;;;;;;;;;;;;;;21.01;48.69;99964.59;1735331;82;20249;-77
2021/05/15 04:19:36;;;;;;;;;;;;;;;21.10;48.47;99967.23;1734137;82;20576;-78
2021/05/15 04:22:03;;;;;;;;;;;;;;;21.19;48.42;99969.06;1733766;82;20197;-77
2021/05/15 04:24:29;;;;;;;;;;;;;;;21.28;48.34;99976.62;1733113;82;20325;-76
2021/05/15 04:26:59;;;;;;;;;;;;;;;21.36;48.07;99971.91;1733077;82;20321;-77
2021/05/15 04:29:26;;;;;;;;;;;;;;;21.44;47.85;99970.17;1733209;82;20288;-77
2021/05/15 04:31:56;;;;;;;;;;;;;;;21.50;47.61;99971.38;1733985;82;20300;-79
2021/05/15 04:34:24;;;;;;;;;;;;;;;21.51;47.53;99969.48;1733541;82;20641;-77
2021/05/15 04:36:50;;;;;;;;;;;;;;;21.56;47.28;99980.48;1734214;82;20210;-77
2021/05/15 04:39:16;;;;;;;;;;;;;;;21.63;47.15;99979.82;1734396;82;20546;-79
2021/05/15 04:41:43;;;;;;;;;;;;;;;21.65;47.06;99985.84;1733592;82;20361;-76
2021/05/15 04:44:09;;;;;;;;;;;;;;;21.69;46.95;99976.11;1733556;82;20339;-76
2021/05/15 04:46:36;;;;;;;;;;;;;;;21.71;46.78;99979.44;1733750;82;20575;-76
2021/05/15 04:49:02;;;;;;;;;;;;;;;21.72;46.73;99977.00;1734774;82;20213;-76
2021/05/15 04:51:28;;;;;;;;;;;;;;;21.82;46.65;99976.91;1734936;82;20293;-77
2021/05/15 04:53:54;;;;;;;;;;;;;;;21.90;46.49;99981.43;1736406;82;20246;-77
2021/05/15 04:56:20;;;;;;;;;;;;;;;21.94;46.42;99981.78;1735627;82;20313;-77
2021/05/15 04:58:46;;;;;;;;;;;;;;;22.01;46.21;99979.70;1736500;82;20277;-77
2021/05/15 05:01:12;;;;;;;;;;;;;;;22.10;45.98;99991.05;1736370;82;20619;-77
2021/05/15 05:03:38;;;;;;;;;;;;;;;22.17;45.81;99991.23;1735449;82;20269;-77
2021/05/15 05:06:04;;;;;;;;;;;;;;;22.21;45.66;99992.39;1735399;82;20213;-77
2021/05/15 05:08:31;;;;;;;;;;;;;;;22.24;45.66;99993.25;1734774;82;20313;-77
2021/05/15 05:10:58;;;;;;;;;;;;;;;22.27;45.57;100002.31;1735627;82;20258;-77
2021/05/15 05:13:24;;;;;;;;;;;;;;;22.53;45.06;100000.03;1735472;82;20633;-77
2021/05/15 05:15:50;;;;;;;;;;;;;;;22.50;45.02;100003.24;1734673;82;20237;-78
2021/05/15 05:18:16;;;;;;;;;;;;;;;22.29;45.50;100007.52;1734653;82;20273;-77
2021/05/15 05:20:42;;;;;;;;;;;;;;;22.25;45.67;100003.08;1734360;80;20319;-77
2021/05/15 05:23:09;;;;;;;;;;;;;;;22.22;45.68;100005.50;1733654;82;20664;-77
2021/05/15 05:25:35;;;;;;;;;;;;;;;22.15;45.73;100009.72;1748388;80;20267;-77
2021/05/15 05:28:01;;;;;;;;;;;;;;;22.10;45.92;100012.33;1749639;81;20249;-77
2021/05/15 05:30:28;;;;;;;;;;;;;;;22.08;45.87;100011.77;1750620;82;20245;-78
2021/05/15 05:32:54;;;;;;;;;;;;;;;22.07;46.17;100015.53;1750217;81;20538;-77
2021/05/15 05:35:20;;;;;;;;;;;;;;;22.46;45.21;100022.01;1750620;81;20165;-77
2021/05/15 05:37:47;;;;;;;;;;;;;;;22.54;44.96;100023.52;1750616;81;20269;-78
2021/05/15 05:40:14;;;;;;;;;;;;;;;22.62;44.76;100030.44;1750402;81;20248;-77
2021/05/15 05:42:40;;;;;;;;;;;;;;;22.68;44.59;100038.48;1720330;83;20255;-77
2021/05/15 05:45:11;;;;;;;;;;;;;;;22.78;44.49;100029.63;1724641;81;20278;-78
2021/05/15 05:47:37;;;;;;;;;;;;;;;22.86;44.22;100040.67;1751006;82;20253;-77
2021/05/15 05:50:05;;;;;;;;;;;;;;;22.93;44.04;100034.52;1751000;82;20224;-77
2021/05/15 05:52:31;;;;;;;;;;;;;;;22.98;43.87;100038.19;1750117;82;20255;-78
2021/05/15 05:54:57;;;;;;;;;;;;;;;23.08;43.67;100038.87;1749912;81;20693;-78
2021/05/15 05:57:23;;;;;;;;;;;;;;;23.18;43.59;100039.55;1749670;82;20249;-77
2021/05/15 05:59:50;;;;;;;;;;;;;;;23.29;43.47;100034.50;1749431;81;20236;-77
2021/05/15 06:02:16;;;;;;;;;;;;;;;23.38;43.52;100045.83;1749351;81;20279;-77
2021/05/15 06:04:42;;;;;;;;;;;;;;;23.50;43.26;100038.34;1748910;82;20229;-77
2021/05/15 06:07:08;;;;;;;;;;;;;;;23.64;43.03;100036.92;1750590;81;20605;-76
2021/05/15 06:09:34;;;;;;;;;;;;;;;23.81;42.60;100038.22;1751314;82;20288;-76
2021/05/15 06:12:01;;;;;;;;;;;;;;;23.99;42.29;100043.90;1746168;80;20209;-77
2021/05/15 06:14:27;;;;;;;;;;;;;;;24.14;41.91;100043.23;1758161;80;20156;-77
2021/05/15 06:16:55;;;;;;;;;;;;;;;24.34;41.78;100031.65;1786136;79;20147;-77
2021/05/15 06:19:21;;;;;;;;;;;;;;;24.59;41.42;100039.31;1757776;80;20201;-77
2021/05/15 06:21:48;;;;;;;;;;;;;;;24.80;40.52;100038.40;1745191;81;20218;-77
2021/05/15 06:24:14;;;;;;;;;;;;;;;24.98;40.52;100040.73;1739824;80;20206;-76
2021/05/15 06:26:40;;;;;;;;;;;;;;;25.19;39.97;100044.44;1734801;82;20351;-76
2021/05/15 06:29:07;;;;;;;;;;;;;;;25.48;39.43;100044.03;1734855;82;20602;-77
2021/05/15 06:31:33;;;;;;;;;;;;;;;25.78;38.95;100042.02;1763856;80;20182;-78
2021/05/15 06:33:59;;;;;;;;;;;;;;;26.06;38.07;100040.73;1751186;80;20280;-77
2021/05/15 06:36:25;;;;;;;;;;;;;;;26.36;37.00;100039.15;1734513;82;20217;-77
2021/05/15 06:38:51;;;;;;;;;;;;;;;26.65;36.46;100043.03;1738329;81;20234;-77
2021/05/15 06:41:17;;;;;;;;;;;;;;;26.93;36.00;100038.06;1766060;81;20217;-77
2021/05/15 06:43:43;;;;;;;;;;;;;;;27.22;35.87;100036.97;1766379;80;20238;-78
2021/05/15 06:46:09;;;;;;;;;;;;;;;27.48;35.17;100038.55;1765460;81;20465;-77
2021/05/15 06:48:36;;;;;;;;;;;;;;;27.73;34.67;100043.14;1766095;81;20567;-78
2021/05/15 06:51:04;;;;;;;;;;;;;;;27.97;34.27;100039.16;1766025;80;20485;-78
2021/05/15 06:53:31;;;;;;;;;;;;;;;27.86;34.00;100034.01;1756759;81;20312;-78
2021/05/15 06:55:57;;;;;;;;;;;;;;;27.90;34.27;100048.85;1754395;81;20698;-78
2021/05/15 06:58:24;;;;;;;;;;;;;;;28.00;33.65;100044.11;1753126;81;20295;-79
2021/05/15 07:00:50;;;;;;;;;;;;;;;28.15;33.52;100043.19;1752560;81;20315;-78
2021/05/15 07:03:16;;;;;;;;;;;;;;;28.33;33.41;100051.34;1751244;81;20219;-77
2021/05/15 07:05:42;;;;;;;;;;;;;;;28.53;32.84;100051.80;1743687;80;20321;-78
2021/05/15 07:08:10;;;;;;;;;;;;;;;28.74;32.50;100053.25;1724448;82;20324;-78
2021/05/15 07:10:37;;;;;;;;;;;;;;;29.04;31.99;100056.33;1757644;81;20253;-78
2021/05/15 07:13:03;;;;;;;;;;;;;;;29.10;31.87;100049.38;1749779;80;20266;-78
2021/05/15 07:15:30;;;;;;;;;;;;;;;29.26;31.64;100049.50;1744964;80;20231;-78
2021/05/15 07:17:57;;;;;;;;;;;;;;;29.44;31.53;100050.69;1744521;80;20221;-78
2021/05/15 07:20:23;;;;;;;;;;;;;;;29.59;31.38;100050.53;1752201;81;20243;-78
2021/05/15 07:22:49;;;;;;;;;;;;;;;29.74;31.04;100051.70;1752985;82;20200;-78
2021/05/15 07:25:16;;;;;;;;;;;;;;;29.91;30.71;100051.22;1753022;81;20160;-78
2021/05/15 07:27:46;;;;;;;;;;;;;;;30.40;29.70;100054.71;1753132;81;20541;-77
2021/05/15 07:30:12;;;;;;;;;;;;;;;30.61;29.29;100046.33;1750724;82;20253;-77
2021/05/15 07:32:38;;;;;;;;;;;;;;;30.38;29.50;100050.84;1748969;81;20245;-77
2021/05/15 07:35:04;;;;;;;;;;;;;;;30.39;29.04;100051.66;1748220;82;20257;-77
2021/05/15 07:37:30;;;;;;;;;;;;;;;30.36;29.21;100046.76;1741436;81;20252;-77
2021/05/15 07:39:56;;;;;;;;;;;;;;;30.42;29.14;100052.45;1739018;82;20284;-77
2021/05/15 07:42:22;;;;;;;;;;;;;;;30.48;28.56;100060.95;1764247;80;20194;-77
2021/05/15 07:44:48;;;;;;;;;;;;;;;30.43;28.77;100059.62;1781591;80;21391;-78
2021/05/15 07:47:14;;;;;;;;;;;;;;;30.47;28.63;100064.80;1781797;80;20194;-78
2021/05/15 07:49:40;;;;;;;;;;;;;;;30.50;28.73;100067.80;1737386;82;20297;-77
2021/05/15 07:52:06;;;;;;;;;;;;;;;30.43;28.63;100059.08;1737977;82;20198;-77
2021/05/15 07:54:34;;;;;;;;;;;;;;;30.38;28.94;100066.05;1737021;82;20380;-77
2021/05/15 07:57:00;;;;;;;;;;;;;;;30.42;29.12;100065.70;1732644;82;20264;-78
2021/05/15 07:59:26;;;;;;;;;;;;;;;30.53;29.16;100065.83;1732623;81;20468;-78
2021/05/15 08:01:52;;;;;;;;;;;;;;;30.64;29.12;100067.03;1735310;82;20193;-77
2021/05/15 08:04:19;;;;;;;;;;;;;;;30.62;29.04;100072.06;1734129;82;20374;-78
2021/05/15 08:06:44;;;;;;;;;;;;;;;30.62;28.83;100068.73;1752426;81;20233;-78
2021/05/15 08:09:12;;;;;;;;;;;;;;;30.67;28.97;100070.03;1716930;81;20282;-78
2021/05/15 08:11:39;;;;;;;;;;;;;;;31.04;28.27;100068.32;1749387;82;20303;-78
2021/05/15 08:14:06;;;;;;;;;;;;;;;31.06;28.15;100065.49;1752299;81;20647;-79
2021/05/15 08:16:33;;;;;;;;;;;;;;;31.13;28.02;100063.73;1750701;82;20640;-77
2021/05/15 08:19:01;;;;;;;;;;;;;;;31.13;27.99;100064.30;1742665;81;20250;-77
2021/05/15 08:21:29;;;;;;;;;;;;;;;31.17;28.07;100070.87;1733753;82;20493;-77
2021/05/15 08:23:55;;;;;;;;;;;;;;;31.23;28.00;100065.48;1735960;82;20321;-77
2021/05/15 08:26:21;;;;;;;;;;;;;;;31.28;27.95;100073.16;1744462;80;20442;-76
2021/05/15 08:28:50;;;;;;;;;;;;;;;31.24;27.23;100070.70;1749003;81;20217;-77
2021/05/15 08:31:14;;;;;;;;;;;;;;;31.10;27.24;100069.05;1746909;82;20260;-77
2021/05/15 08:33:40;;;;;;;;;;;;;;;30.96;27.26;100066.25;1739132;82;20637;-77
2021/05/15 08:36:08;;;;;;;;;;;;;;;30.89;27.59;100060.31;1748360;81;20721;-77
2021/05/15 08:38:34;;;;;;;;;;;;;;;30.88;27.90;100058.64;1734848;80;20305;-78
2021/05/15 08:41:01;;;;;;;;;;;;;;;30.93;28.07;100062.16;1738245;80;20303;-78
2021/05/15 08:43:27;;;;;;;;;;;;;;;30.98;28.11;100062.07;1750597;81;20302;-78
2021/05/15 08:45:55;;;;;;;;;;;;;;;31.05;27.89;100063.04;1741288;81;20349;-77
2021/05/15 08:48:21;;;;;;;;;;;;;;;31.08;27.33;100067.98;1743555;82;20292;-78
2021/05/15 08:50:47;;;;;;;;;;;;;;;31.04;27.33;100065.55;1738978;81;20552;-78
2021/05/15 08:53:13;;;;;;;;;;;;;;;30.93;27.20;100065.46;1732898;81;20285;-78
2021/05/15 08:55:39;;;;;;;;;;;;;;;30.82;27.49;100063.45;1747621;81;20292;-77
2021/05/15 08:58:06;;;;;;;;;;;;;;;30.76;27.25;100069.62;1746277;81;20293;-78
2021/05/15 09:00:38;;;;;;;;;;;;;;;30.56;27.32;100074.06;1741695;80;20248;-77
2021/05/15 09:03:12;;;;;;;;;;;;;;;30.19;27.48;100079.86;1747530;81;20259;-78
2021/05/15 09:05:41;;;;;;;;;;;;;;;29.96;27.47;100076.56;1714230;81;20223;-79
2021/05/15 09:08:09;;;;;;;;;;;;;;;29.75;27.64;100082.89;1726050;81;20328;-78
2021/05/15 09:10:40;;;;;;;;;;;;;;;29.53;27.75;100073.20;1740964;81;20324;-78
2021/05/15 09:13:11;;;;;;;;;;;;;;;29.37;28.13;100080.55;1743962;81;20213;-78
2021/05/15 09:15:43;;;;;;;;;;;;;;;29.21;28.19;100084.04;1737204;80;20177;-78
2021/05/15 09:18:13;;;;;;;;;;;;;;;29.06;28.21;100086.36;1753892;80;20270;-77
2021/05/15 09:20:41;;;;;;;;;;;;;;;28.93;28.71;100079.55;1751577;80;20244;-77
2021/05/15 09:23:16;;;;;;;;;;;;;;;28.86;29.07;100079.64;1747833;81;20193;-78
2021/05/15 09:25:44;;;;;;;;;;;;;;;28.83;29.24;100081.84;1760988;80;20198;-78
2021/05/15 09:28:10;;;;;;;;;;;;;;;28.76;29.41;100070.34;1743445;80;20193;-79
2021/05/15 09:30:37;;;;;;;;;;;;;;;28.75;29.56;100069.23;1747665;81;20170;-77
2021/05/15 09:33:11;;;;;;;;;;;;;;;28.68;29.50;100077.84;1753533;81;20250;-78
2021/05/15 09:35:37;;;;;;;;;;;;;;;28.62;29.50;100074.05;1740439;80;20265;-78
2021/05/15 09:38:03;;;;;;;;;;;;;;;28.58;29.64;100066.91;1751308;81;20704;-77
2021/05/15 09:40:29;;;;;;;;;;;;;;;28.57;29.60;100073.53;1703096;81;20293;-78
2021/05/15 09:42:57;;;;;;;;;;;;;;;28.55;29.60;100075.73;1764907;80;20206;-77
2021/05/15 09:45:31;;;;;;;;;;;;;;;28.53;29.93;100073.84;1747447;80;20646;-77
2021/05/15 09:48:02;;;;;;;;;;;;;;;28.46;29.51;100075.52;1750169;81;20266;-77
2021/05/15 09:50:31;;;;;;;;;;;;;;;28.44;29.69;100076.94;1718808;82;20288;-77
2021/05/15 09:53:14;;;;;;;;;;;;;;;28.42;29.81;100083.27;1739456;80;20237;-78
2021/05/15 09:55:42;;;;;;;;;;;;;;;28.41;29.59;100070.61;1767124;80;20284;-77
2021/05/15 09:58:09;;;;;;;;;;;;;;;28.41;29.54;100078.88;1748908;81;20595;-78
2021/05/15 10:00:44;;;;;;;;;;;;;;;28.39;29.07;100073.66;1750315;81;20217;-78
2021/05/15 10:03:21;;;;;;;;;;;;;;;28.37;29.14;100080.55;1750498;81;20372;-79
2021/05/15 10:06:07;;;;;;;;;;;;;;;28.33;29.27;100076.95;1749299;81;20248;-79
2021/05/15 10:08:40;;;;;;;;;;;;;;;28.33;29.50;100075.56;1726802;82;20348;-77
2021/05/15 10:11:08;;;;;;;;;;;;;;;28.32;29.04;100074.48;1691824;83;20307;-76
2021/05/15 10:13:34;;;;;;;;;;;;;;;28.31;29.27;100078.36;1719686;83;20207;-77
2021/05/15 10:16:01;;;;;;;;;;;;;;;28.30;29.21;100073.96;1718934;83;20583;-78
2021/05/15 10:18:28;;;;;;;;;;;;;;;28.27;29.17;100082.23;1720172;83;20247;-79
2021/05/15 10:20:56;;;;;;;;;;;;;;;28.30;29.34;100073.96;1720640;83;20246;-78
2021/05/15 10:23:37;;;;;;;;;;;;;;;28.31;29.44;100076.42;1728553;82;20281;-78
2021/05/15 10:26:18;;;;;;;;;;;;;;;28.23;29.66;100075.64;1732586;80;20272;-77
2021/05/15 10:28:45;;;;;;;;;;;;;;;28.20;29.63;100074.82;1737802;82;20244;-79
2021/05/15 10:31:14;;;;;;;;;;;;;;;28.21;29.18;100076.48;1738660;82;20256;-78
2021/05/15 10:33:42;;;;;;;;;;;;;;;28.22;29.44;100081.44;1739249;82;20253;-78
2021/05/15 10:36:21;;;;;;;;;;;;;;;28.19;29.32;100080.63;1750818;80;20286;-78
2021/05/15 10:38:51;;;;;;;;;;;;;;;28.16;29.14;100079.80;1751056;81;20282;-78
2021/05/15 10:41:25;;;;;;;;;;;;;;;28.16;29.01;100082.56;1768889;80;20250;-78
2021/05/15 10:43:53;;;;;;;;;;;;;;;28.16;29.22;100082.03;1738388;79;20317;-77
2021/05/15 10:46:23;;;;;;;;;;;;;;;28.13;28.66;100076.27;1748387;80;20626;-78
2021/05/15 10:49:05;;;;;;;;;;;;;;;28.10;28.98;100079.02;1781847;80;20696;-78
2021/05/15 10:51:45;;;;;;;;;;;;;;;28.08;29.28;100085.38;1783949;80;20731;-77
2021/05/15 10:54:13;;;;;;;;;;;;;;;28.05;29.50;100083.18;1783187;80;20262;-79
2021/05/15 10:56:40;;;;;;;;;;;;;;;28.01;29.50;100084.29;1785630;80;20274;-78
2021/05/15 10:59:18;;;;;;;;;;;;;;;27.99;29.55;100078.25;1743729;80;20310;-78
2021/05/15 11:01:49;;;;;;;;;;;;;;;28.01;30.00;100076.59;1733851;82;20297;-78
2021/05/15 11:04:21;;;;;;;;;;;;;;;27.99;29.70;100082.39;1733793;82;20285;-78
2021/05/15 11:07:08;;;;;;;;;;;;;;;27.95;29.31;100074.98;1724298;82;20572;-79
2021/05/15 11:09:38;;;;;;;;;;;;;;;27.91;29.59;100071.14;1733786;82;20296;-79
2021/05/15 11:12:06;;;;;;;;;;;;;;;27.88;29.68;100074.45;1735182;82;20436;-78
2021/05/15 11:14:39;;;;;;;;;;;;;;;27.84;29.78;100074.18;1734833;82;20638;-78
2021/05/15 11:17:21;;;;;;;;;;;;;;;27.83;29.94;100074.47;1734087;82;20345;-79
2021/05/15 11:19:51;;;;;;;;;;;;;;;27.81;29.81;100072.83;1666398;84;20268;-79
2021/05/15 11:22:18;;;;;;;;;;;;;;;27.83;29.88;100075.84;1706968;84;20151;-78
2021/05/15 11:24:52;;;;;;;;;;;;;;;27.82;29.84;100068.15;1734673;82;20423;-77
2021/05/15 11:27:19;;;;;;;;;;;;;;;27.84;29.78;100070.61;1734861;82;20689;-78
2021/05/15 11:29:47;;;;;;;;;;;;;;;27.81;29.78;100066.51;1706388;82;20237;-78
2021/05/15 11:32:17;;;;;;;;;;;;;;;27.78;29.92;100063.75;1734695;82;20212;-79
2021/05/15 11:34:43;;;;;;;;;;;;;;;27.76;29.67;100058.27;1735271;82;20174;-79
2021/05/15 11:37:11;;;;;;;;;;;;;;;27.77;29.43;100062.11;1736284;82;20595;-77
2021/05/15 11:39:37;;;;;;;;;;;;;;;27.76;29.43;100069.28;1706254;82;20206;-78
2021/05/15 11:42:10;;;;;;;;;;;;;;;27.71;29.35;100063.22;1735186;82;20252;-78
2021/05/15 11:44:40;;;;;;;;;;;;;;;27.68;29.42;100063.77;1734524;81;20325;-79
2021/05/15 11:47:09;;;;;;;;;;;;;;;27.66;29.35;100063.77;1734025;82;20333;-79
2021/05/15 11:49:36;;;;;;;;;;;;;;;27.95;28.94;100062.59;1751171;80;20250;-78
2021/05/15 11:52:05;;;;;;;;;;;;;;;28.04;28.72;100063.64;1783766;80;20278;-79
2021/05/15 11:54:32;;;;;;;;;;;;;;;28.05;28.93;100061.97;1782741;80;20618;-78
2021/05/15 11:57:00;;;;;;;;;;;;;;;28.06;28.92;100049.84;1782756;80;20270;-78
2021/05/15 11:59:26;;;;;;;;;;;;;;;28.08;29.00;100055.09;1784111;80;20242;-78
2021/05/15 12:01:52;;;;;;;;;;;;;;;28.10;29.05;100048.73;1754313;80;20277;-78
2021/05/15 12:04:30;;;;;;;;;;;;;;;28.12;29.09;100047.09;1750452;82;20236;-78
2021/05/15 12:07:07;;;;;;;;;;;;;;;28.12;28.97;100047.91;1762330;80;20195;-79
2021/05/15 12:09:34;;;;;;;;;;;;;;;28.12;28.82;100055.34;1748511;81;20246;-78
2021/05/15 12:12:02;;;;;;;;;;;;;;;28.10;28.33;100046.53;1765446;81;20399;-78
2021/05/15 12:14:30;;;;;;;;;;;;;;;28.09;28.18;100045.71;1746066;80;20244;-77
2021/05/15 12:17:08;;;;;;;;;;;;;;;28.08;28.35;100046.83;1698384;84;20263;-78
2021/05/15 12:19:34;;;;;;;;;;;;;;;28.09;28.33;100038.83;1700011;83;20293;-78
2021/05/15 12:22:07;;;;;;;;;;;;;;;28.11;28.66;100035.78;1739039;80;20267;-78
2021/05/15 12:24:43;;;;;;;;;;;;;;;28.13;28.40;100034.40;1719481;81;20290;-78
2021/05/15 12:27:21;;;;;;;;;;;;;;;28.20;28.15;100040.39;1766254;80;20247;-78
2021/05/15 12:30:05;;;;;;;;;;;;;;;28.21;28.05;100033.80;1765976;81;20285;-77
2021/05/15 12:32:33;;;;;;;;;;;;;;;28.13;28.10;100035.78;1766795;81;20739;-77
2021/05/15 12:35:01;;;;;;;;;;;;;;;28.01;28.33;100035.30;1767059;81;20254;-78
2021/05/15 12:37:37;;;;;;;;;;;;;;;27.74;28.65;100039.27;1764879;80;20303;-77
2021/05/15 12:40:08;;;;;;;;;;;;;;;27.71;28.79;100037.63;1748461;82;20240;-78
2021/05/15 12:42:34;;;;;;;;;;;;;;;27.86;28.74;100047.21;1749468;80;20264;-79
2021/05/15 12:45:10;;;;;;;;;;;;;;;28.08;27.93;100041.32;1755441;81;20302;-77
2021/05/15 12:47:37;;;;;;;;;;;;;;;28.10;27.94;100044.59;1765909;81;20566;-78